createdAt,value
2022-10-28T07:01:11.107Z,5.87
2022-10-28T07:03:39.129Z,6.07
2022-10-28T07:06:08.132Z,5.90
2022-10-28T07:08:36.240Z,5.50
2022-10-28T07:11:04.350Z,5.63
2022-10-28T07:13:32.374Z,6.10
2022-10-28T07:16:01.726Z,6.23
2022-10-28T07:18:31.554Z,5.60
2022-10-28T07:21:00.097Z,5.03
2022-10-28T07:23:28.657Z,5.53
2022-10-28T07:25:57.386Z,5.23
2022-10-28T07:28:26.776Z,5.57
2022-10-28T07:30:55.180Z,5.87
2022-10-28T07:33:23.189Z,6.07
2022-10-28T07:35:52.507Z,5.37
2022-10-28T07:38:20.514Z,5.53
2022-10-28T07:40:48.496Z,5.07
2022-10-28T07:43:16.534Z,5.47
2022-10-28T07:45:44.540Z,5.80
2022-10-28T07:48:12.557Z,5.40
2022-10-28T07:50:41.617Z,6.03
2022-10-28T07:53:11.036Z,6.00
2022-10-28T07:55:39.069Z,5.57
2022-10-28T07:58:07.061Z,5.13
2022-10-28T08:00:35.132Z,5.80
2022-10-28T08:03:04.047Z,6.53
2022-10-28T08:05:32.049Z,5.53
2022-10-28T08:07:59.989Z,5.50
2022-10-28T08:10:29.409Z,5.50
2022-10-28T08:12:58.019Z,5.00
2022-10-28T08:15:26.279Z,5.53
2022-10-28T08:17:54.724Z,5.23
2022-10-28T08:20:23.280Z,5.03
2022-10-28T08:22:51.493Z,5.03
2022-10-28T08:25:19.742Z,6.03
2022-10-28T08:27:49.069Z,5.27
2022-10-28T08:30:17.105Z,6.20
2022-10-28T08:32:45.203Z,5.77
2022-10-28T08:35:13.229Z,6.33
2022-10-28T08:37:41.194Z,5.23
2022-10-28T08:40:13.090Z,5.77
2022-10-28T08:42:47.820Z,5.00
2022-10-28T08:45:31.402Z,4.83
2022-10-28T08:48:10.695Z,4.77
2022-10-28T08:50:47.491Z,5.37
2022-10-28T08:53:20.624Z,4.87
2022-10-28T08:55:51.162Z,4.53
2022-10-28T08:58:23.088Z,4.70
2022-10-28T09:00:55.315Z,4.50
2022-10-28T09:03:26.479Z,4.60
2022-10-28T09:05:58.564Z,5.13
2022-10-28T09:08:28.842Z,5.03
2022-10-28T09:11:27.918Z,5.60
2022-10-28T09:14:16.792Z,5.43
2022-10-28T09:16:49.436Z,5.03
2022-10-28T09:19:36.976Z,5.03
2022-10-28T09:22:19.823Z,6.57
2022-10-28T09:24:53.791Z,5.50
2022-10-28T09:27:35.704Z,6.03
2022-10-28T09:30:19.784Z,5.33
2022-10-28T09:32:58.441Z,5.87
2022-10-28T09:35:29.536Z,5.83
2022-10-28T09:38:03.866Z,5.80
2022-10-28T09:40:34.774Z,6.20
2022-10-28T09:43:08.314Z,5.50
2022-10-28T09:45:41.360Z,5.90
2022-10-28T09:48:20.266Z,5.70
2022-10-28T09:50:51.967Z,5.30
2022-10-28T09:53:27.477Z,5.37
2022-10-28T09:55:56.047Z,5.17
2022-10-28T09:58:24.429Z,5.67
2022-10-28T10:00:54.638Z,5.37
2022-10-28T10:03:23.997Z,4.83
2022-10-28T10:05:55.213Z,5.23
2022-10-28T10:08:24.283Z,4.87
2022-10-28T10:10:55.991Z,4.70
2022-10-28T10:13:28.514Z,4.83
2022-10-28T10:15:59.762Z,5.20
2022-10-28T10:18:32.863Z,4.70
2022-10-28T10:21:01.499Z,5.57
2022-10-28T10:23:31.716Z,4.80
2022-10-28T10:26:06.760Z,5.07
2022-10-28T10:28:42.878Z,5.20
2022-10-28T10:31:19.820Z,4.47
2022-10-28T10:33:52.986Z,4.70
2022-10-28T10:36:28.259Z,5.23
2022-10-28T10:38:58.322Z,5.20
2022-10-28T10:41:35.681Z,5.13
2022-10-28T10:44:03.879Z,5.13
2022-10-28T10:46:32.076Z,5.27
2022-10-28T10:49:14.979Z,4.97
2022-10-28T10:51:52.928Z,4.78
2022-10-28T10:54:22.012Z,4.83
2022-10-28T10:56:50.508Z,4.50
2022-10-28T10:59:24.584Z,4.60
2022-10-28T11:01:52.975Z,4.93
2022-10-28T11:04:24.190Z,4.70
2022-10-28T11:06:54.957Z,5.33
2022-10-28T11:09:29.986Z,4.30
2022-10-28T11:11:58.388Z,4.20
2022-10-28T11:14:29.414Z,4.47
2022-10-28T11:16:59.134Z,4.60
2022-10-28T11:19:32.786Z,5.33
2022-10-28T11:22:14.324Z,4.90
2022-10-28T11:25:10.798Z,4.78
2022-10-28T11:27:53.858Z,4.38
2022-10-28T11:30:38.585Z,4.38
2022-10-28T11:33:29.579Z,4.28
2022-10-28T11:36:09.676Z,4.80
2022-10-28T11:39:22.428Z,4.43
2022-10-28T11:42:08.297Z,4.70
2022-10-28T11:44:50.344Z,4.55
2022-10-28T11:47:46.551Z,4.70
2022-10-28T11:50:27.412Z,4.35
2022-10-28T11:53:26.580Z,4.57
2022-10-28T11:56:03.372Z,4.63
2022-10-28T11:58:42.248Z,4.68
2022-10-28T12:01:22.195Z,5.05
2022-10-28T12:04:11.905Z,5.20
2022-10-28T12:06:56.138Z,4.85
2022-10-28T12:09:38.776Z,5.00
2022-10-28T12:12:16.456Z,3.97
2022-10-28T12:14:52.624Z,5.00
2022-10-28T12:17:28.868Z,4.68
2022-10-28T12:20:02.447Z,4.78
2022-10-28T12:22:35.025Z,4.35
2022-10-28T12:25:13.882Z,4.60
2022-10-28T12:27:44.579Z,4.20
2022-10-28T12:30:21.975Z,4.68
2022-10-28T12:32:54.092Z,4.32
2022-10-28T12:35:26.053Z,4.45
2022-10-28T12:37:59.313Z,4.35
2022-10-28T12:40:33.243Z,3.90
2022-10-28T12:43:06.707Z,4.45
2022-10-28T12:45:34.829Z,4.18
2022-10-28T12:48:10.120Z,4.22
2022-10-28T12:50:45.563Z,4.10
2022-10-28T12:53:29.000Z,3.92
2022-10-28T12:56:01.405Z,4.40
2022-10-28T12:58:35.176Z,4.30
2022-10-28T13:01:09.504Z,4.03
2022-10-28T13:03:37.654Z,4.57
2022-10-28T13:06:32.234Z,4.28
2022-10-28T13:09:24.678Z,4.28
2022-10-28T13:12:13.076Z,4.85
2022-10-28T13:15:16.119Z,4.38
2022-10-28T13:17:58.095Z,3.92
2022-10-28T13:20:38.822Z,3.72
2022-10-28T13:23:20.177Z,3.95
2022-10-28T13:26:07.677Z,4.18
2022-10-28T13:28:44.868Z,3.95
2022-10-28T13:31:14.717Z,5.00
2022-10-28T13:33:52.555Z,4.85
2022-10-28T13:36:26.325Z,4.68
2022-10-28T13:38:56.634Z,4.13
2022-10-28T13:41:34.572Z,4.03
2022-10-28T13:44:47.631Z,4.18
2022-10-28T13:47:34.018Z,3.65
2022-10-28T13:50:34.027Z,4.15
2022-10-28T13:53:42.127Z,4.45
2022-10-28T13:56:20.743Z,3.85
2022-10-28T13:58:54.392Z,3.42
2022-10-28T14:02:35.612Z,3.97
2022-10-28T14:05:07.349Z,3.50
2022-10-28T14:07:37.416Z,3.22
2022-10-28T14:10:24.308Z,3.47
2022-10-28T14:12:56.807Z,3.60
2022-10-28T14:15:29.830Z,3.67
2022-10-28T14:18:10.590Z,3.43
2022-10-28T14:21:01.687Z,3.47
2022-10-28T14:24:09.225Z,3.50
2022-10-28T14:27:12.660Z,3.13
2022-10-28T14:29:49.032Z,3.03
2022-10-28T14:32:42.697Z,3.40
2022-10-28T14:35:24.725Z,3.83
2022-10-28T14:38:25.467Z,4.37
2022-10-28T14:41:04.903Z,3.50
2022-10-28T14:43:48.685Z,3.30
2022-10-28T14:46:34.456Z,3.87
2022-10-28T14:49:04.960Z,3.57
2022-10-28T14:51:42.409Z,3.43
2022-10-28T14:54:16.079Z,3.90
2022-10-28T14:56:45.243Z,4.33
2022-10-28T14:59:27.136Z,4.00
2022-10-28T15:02:02.559Z,4.27
2022-10-28T15:04:31.032Z,3.90
2022-10-28T15:07:00.816Z,3.70
2022-10-28T15:09:31.077Z,3.77
2022-10-28T15:12:02.274Z,3.60
2022-10-28T15:14:36.822Z,3.67
2022-10-28T15:17:13.289Z,3.20
2022-10-28T15:19:42.047Z,3.60
2022-10-28T15:22:20.184Z,3.60
2022-10-28T15:24:56.445Z,3.90
2022-10-28T15:27:25.781Z,3.80
2022-10-28T15:29:55.835Z,3.47
2022-10-28T15:32:35.090Z,3.97
2022-10-28T15:35:38.112Z,3.77
2022-10-28T15:38:39.180Z,3.70
2022-10-28T15:41:49.204Z,3.30
2022-10-28T15:44:31.619Z,3.97
2022-10-28T15:47:01.212Z,3.47
2022-10-28T15:49:38.061Z,3.63
2022-10-28T15:52:41.916Z,3.40
2022-10-28T15:55:47.671Z,3.27
2022-10-28T15:58:35.635Z,4.03
2022-10-28T16:01:04.984Z,3.63
2022-10-28T16:03:43.921Z,3.27
2022-10-28T16:06:24.704Z,4.27
